Aérodrome :
LOGIN :

S'inscrire | Disclaimer

   EN    FR    IT 

 










Légende :    VFR   VFR Marginal   IFR   IFR Intensif   IFR Très Intensif
Visi : 
Plafond : 
>= 8 km
>= 3000ft
5 à 8 km
1000 à 3000 ft
1500m à 5 km
500 à 1000 ft
800 à 1500m
200 à 500 ft
< 800m
< 200 ft
Symboles :   Orages  Brouillard  Fortes neiges  Fortes précipitations  Vent > 20 kt
SIGMETs :   Divers  Orages  Givrage  Turbulence  Onde Orograph.  Cendres Volcan.







- Altitude de l'aérodrome : -15 ft
- Code IATA : RTM


EHRD - Rotterdam Zestienhoven

DERNIER METAR :
  • 192125Z AUTO 05015KT 020V080 9999 NCD 03/00 Q1016 NOSIG

METARs EXPIRÉS :
  • 192055Z AUTO 05015KT 030V090 9999 NCD 03/01 Q1016 NOSIG
  • 192025Z AUTO 05014KT 020V080 9999 NCD 04/01 Q1016 NOSIG
  • 191955Z AUTO 05011KT 9999 NCD 04/01 Q1017 NOSIG
  • 191925Z AUTO 05013KT 9999 NCD 04/01 Q1017 NOSIG
  • 191855Z AUTO 05012KT 350V080 9999 NCD 04/01 Q1017 NOSIG

TAF TAF EHRD
Valide du 19 à 18h jusqu'au 21 à 00h UTC


191711Z 1918/2024 08015KT 9999 SCT022 SCT040
TEMPO 2008/2016 09018G30KT
BECMG 2016/2018 09015KT
Pas de NOTAMs connus pour ce terrain.



MET'MAP, la Météo Aéronautique d'un coup d'oeil ! - Copyright ORBIFLY Décembre 2007 - Disclaimer

ORBIFLY MET'MAP TEAM :

Programmation & Développement : Alexandra Zaïnal
Conception & Développement : Baudouin d'Aumeries
Co-Programmation & Développement : Marc-Olivier Méhu
Soutien technique & logistique : Manuel Goepfert

Contact : metmap@orbifly.com




SOURCES & CREDITS :

   NOAA